Time;durP1;ratioP1;P1;durP2;ratioP2;P2;SDS_P1;SDS_P2;PMS_P1;PMS_P2;Temp;Humidity;BMP_temperature;BMP_pressure;BME280_temperature;BME280_humidity;BME280_pressure;Samples;Min_cycle;Max_cycle;Signal;HPM_P1;HPM_P2
2022/12/19 00:01:15;;;;;;;76.97;29.58;;;;;;;-3.70;100.00;93734.16;2106342;28;20020;-82
2022/12/19 00:02:30;;;;;;;86.28;31.30;;;;;;;-3.70;100.00;93744.59;2102005;28;20042;-81
2022/12/19 00:03:37;;;;;;;83.10;29.42;;;;;;;-3.69;100.00;93742.75;2095816;28;20524;-82
2022/12/19 00:04:41;;;;;;;78.22;29.75;;;;;;;-3.70;100.00;93747.22;2092429;28;20028;-82
2022/12/19 00:05:58;;;;;;;75.25;29.58;;;;;;;-3.72;100.00;93751.22;2092683;28;20032;-82
2022/12/19 00:07:05;;;;;;;84.85;30.42;;;;;;;-3.68;100.00;93742.47;2096012;28;20029;-83
2022/12/19 00:08:16;;;;;;;77.40;30.05;;;;;;;-3.59;100.00;93747.66;2092643;28;20478;-81
2022/12/19 00:09:19;;;;;;;80.18;30.98;;;;;;;-3.41;100.00;93745.78;2094615;28;20025;-81
2022/12/19 00:10:26;;;;;;;79.50;32.25;;;;;;;-3.31;100.00;93748.03;2101525;28;20488;-82
2022/12/19 00:11:33;;;;;;;90.30;33.33;;;;;;;-3.42;100.00;93744.25;2107845;28;20061;-83
2022/12/19 00:12:35;;;;;;;87.22;30.60;;;;;;;-3.37;100.00;93738.84;2101687;28;20028;-82
2022/12/19 00:13:39;;;;;;;81.05;31.45;;;;;;;-3.54;100.00;93742.28;2109156;28;20027;-84
2022/12/19 00:14:43;;;;;;;79.80;30.40;;;;;;;-3.66;100.00;93744.75;2100986;28;20028;-83
2022/12/19 00:15:48;;;;;;;80.53;30.88;;;;;;;-3.65;100.00;93739.22;2106462;28;20028;-83
2022/12/19 00:16:55;;;;;;;89.60;31.50;;;;;;;-3.63;100.00;93744.91;2102144;28;20369;-79
2022/12/19 00:18:03;;;;;;;77.63;30.67;;;;;;;-3.62;100.00;93741.19;2101931;28;20020;-82
2022/12/19 00:19:08;;;;;;;82.57;31.67;;;;;;;-3.58;100.00;93742.13;2109441;28;20122;-82
2022/12/19 00:20:13;;;;;;;84.13;31.27;;;;;;;-3.62;100.00;93741.19;2101001;28;20573;-83
2022/12/19 00:21:22;;;;;;;84.20;29.80;;;;;;;-3.62;100.00;93741.19;2109072;28;20027;-81
2022/12/19 00:22:29;;;;;;;85.78;31.85;;;;;;;-3.64;100.00;93742.63;2101534;28;20056;-82
2022/12/19 00:23:38;;;;;;;87.82;33.13;;;;;;;-3.64;100.00;93734.78;2101750;28;20139;-80
2022/12/19 00:24:47;;;;;;;84.20;31.27;;;;;;;-3.67;100.00;93733.53;2100992;28;20102;-82
2022/12/19 00:25:52;;;;;;;78.82;31.20;;;;;;;-3.67;100.00;93728.31;2102742;28;20032;-81
2022/12/19 00:26:56;;;;;;;83.60;31.42;;;;;;;-3.51;100.00;93723.38;2108353;28;20453;-82
2022/12/19 00:28:00;;;;;;;85.95;32.58;;;;;;;-3.51;100.00;93723.38;2100727;28;20035;-80
2022/12/19 00:29:13;;;;;;;89.90;32.47;;;;;;;-3.61;100.00;93726.28;2096314;28;20024;-83
2022/12/19 00:30:17;;;;;;;89.07;33.28;;;;;;;-3.67;100.00;93722.31;2109668;28;20031;-82
2022/12/19 00:31:20;;;;;;;83.18;30.83;;;;;;;-3.60;100.00;93723.41;2100668;28;20443;-82
2022/12/19 00:32:24;;;;;;;83.72;32.17;;;;;;;-3.56;100.00;93719.06;2101159;28;20020;-82
2022/12/19 00:33:39;;;;;;;85.10;31.35;;;;;;;-3.53;100.00;93725.50;2101271;28;20031;-83
2022/12/19 00:34:48;;;;;;;88.88;32.80;;;;;;;-3.65;100.00;93726.16;2103774;28;20534;-82
2022/12/19 00:36:09;;;;;;;84.25;31.10;;;;;;;-3.63;100.00;93728.47;2107629;28;20047;-81
2022/12/19 00:37:13;;;;;;;85.85;31.35;;;;;;;-3.67;100.00;93720.47;2096162;28;20489;-83
2022/12/19 00:38:21;;;;;;;88.22;32.65;;;;;;;-3.63;100.00;93729.22;2092446;28;20086;-81
2022/12/19 00:39:23;;;;;;;90.03;32.40;;;;;;;-3.65;100.00;93725.38;2093027;28;20055;-82
2022/12/19 00:40:25;;;;;;;83.65;30.95;;;;;;;-3.56;100.00;93726.91;2101063;28;20514;-82
2022/12/19 00:41:33;;;;;;;86.35;32.50;;;;;;;-3.53;100.00;93727.34;2099673;28;20025;-82
2022/12/19 00:42:37;;;;;;;86.97;32.10;;;;;;;-3.47;100.00;93726.88;2101932;28;20094;-83
2022/12/19 00:43:44;;;;;;;84.38;32.60;;;;;;;-3.49;100.00;93718.59;2108456;28;20040;-82
2022/12/19 00:44:48;;;;;;;84.90;30.88;;;;;;;-3.56;100.00;93716.47;2101093;28;20032;-80
2022/12/19 00:45:55;;;;;;;84.97;30.05;;;;;;;-3.56;100.00;93713.84;2108560;28;20024;-83
2022/12/19 00:47:00;;;;;;;87.90;33.00;;;;;;;-3.51;100.00;93717.34;2100993;28;20107;-82
2022/12/19 00:48:13;;;;;;;81.78;30.60;;;;;;;-3.53;100.00;93716.91;2109571;28;20023;-83
2022/12/19 00:49:21;;;;;;;90.07;33.05;;;;;;;-3.27;100.00;93709.75;2102139;28;20033;-81
2022/12/19 00:50:25;;;;;;;75.70;30.40;;;;;;;-3.42;100.00;93700.59;2100070;28;20090;-83
2022/12/19 00:51:35;;;;;;;89.60;30.33;;;;;;;-3.46;100.00;93704.13;2107968;28;20032;-82
2022/12/19 00:52:48;;;;;;;81.38;30.35;;;;;;;-3.35;100.00;93706.09;2102105;28;20051;-81
2022/12/19 00:53:52;;;;;;;81.85;31.48;;;;;;;-3.48;100.00;93709.66;2108537;28;20355;-82
2022/12/19 00:54:59;;;;;;;83.72;31.27;;;;;;;-3.45;100.00;93703.06;2107787;28;20035;-82
2022/12/19 00:56:15;;;;;;;91.35;32.60;;;;;;;-3.52;100.00;93700.91;2100161;28;20029;-82
2022/12/19 00:57:17;;;;;;;82.60;31.55;;;;;;;-3.28;100.00;93697.75;2101834;28;20477;-80
2022/12/19 00:58:22;;;;;;;87.43;31.95;;;;;;;-3.34;100.00;93693.78;2098958;28;20469;-82
2022/12/19 00:59:39;;;;;;;88.65;31.45;;;;;;;-3.41;100.00;93693.50;2100932;28;20048;-82
2022/12/19 01:00:46;;;;;;;85.80;31.42;;;;;;;-3.35;100.00;93692.25;2102986;28;20032;-81
2022/12/19 01:02:00;;;;;;;82.68;31.20;;;;;;;-3.39;100.00;93691.34;2100791;28;20029;-81
2022/12/19 01:03:07;;;;;;;89.97;32.47;;;;;;;-3.45;100.00;93701.22;2109236;28;20034;-81
2022/12/19 01:04:18;;;;;;;82.30;30.30;;;;;;;-3.39;100.00;93697.34;2107924;28;20461;-81
2022/12/19 01:05:20;;;;;;;87.78;31.55;;;;;;;-3.43;100.00;93696.41;2100547;28;20542;-81
2022/12/19 01:06:50;;;;;;;83.65;32.47;;;;;;;-3.34;100.00;93699.75;2090539;28;20063;-82
2022/12/19 01:07:51;;;;;;;88.70;29.70;;;;;;;-3.45;100.00;93687.38;2098940;28;20028;-83
2022/12/19 01:08:59;;;;;;;85.90;31.60;;;;;;;-3.41;100.00;93693.50;2091257;28;20040;-81
2022/12/19 01:10:06;;;;;;;87.88;31.55;;;;;;;-3.22;100.00;93686.03;2093527;28;20044;-82
2022/12/19 01:12:53;;;;;;;81.38;29.23;;;;;;;-3.15;100.00;93694.16;2117521;27;20036;-82
2022/12/19 01:13:58;;;;;;;87.25;30.35;;;;;;;-3.30;100.00;93684.22;2115651;28;20027;-80
2022/12/19 01:15:00;;;;;;;84.00;31.40;;;;;;;-3.33;100.00;93700.56;2092191;28;20033;-81
2022/12/19 01:16:10;;;;;;;86.45;31.95;;;;;;;-3.32;100.00;93696.84;2091086;28;20041;-82
2022/12/19 01:17:19;;;;;;;95.78;32.53;;;;;;;-3.40;100.00;93706.25;2100740;28;20032;-84
2022/12/19 01:18:23;;;;;;;89.30;32.17;;;;;;;-3.26;100.00;93703.44;2099473;28;20028;-81
2022/12/19 01:19:26;;;;;;;90.35;32.47;;;;;;;-3.21;100.00;93705.09;2091894;28;20033;-81
2022/12/19 01:20:33;;;;;;;84.82;32.40;;;;;;;-3.20;100.00;93710.03;2091164;28;20103;-82
2022/12/19 01:21:39;;;;;;;86.33;31.57;;;;;;;-3.24;100.00;93703.91;2093318;28;20484;-80
2022/12/19 01:22:44;;;;;;;84.82;30.67;;;;;;;-3.04;100.00;93711.03;2091771;28;20466;-81
2022/12/19 01:23:51;;;;;;;85.60;29.80;;;;;;;-3.11;100.00;93708.16;2092593;28;20024;-81
2022/12/19 01:24:59;;;;;;;92.32;32.45;;;;;;;-3.22;100.00;93712.19;2100466;28;20036;-83
2022/12/19 01:26:01;;;;;;;87.78;33.58;;;;;;;-3.29;100.00;93722.38;2099782;28;20068;-83
2022/12/19 01:27:07;;;;;;;95.97;33.45;;;;;;;-3.27;100.00;93714.97;2090886;28;20104;-80
2022/12/19 01:28:13;;;;;;;95.97;34.45;;;;;;;-3.35;100.00;93716.53;2093193;28;20024;-82
2022/12/19 01:29:18;;;;;;;91.05;32.70;;;;;;;-3.33;100.00;93711.00;2100552;28;20024;-80
2022/12/19 01:30:22;;;;;;;96.65;34.83;;;;;;;-3.34;100.00;93712.06;2107465;28;20032;-82
2022/12/19 01:31:24;;;;;;;86.38;31.40;;;;;;;-3.24;100.00;93714.34;2101106;28;20029;-81
2022/12/19 01:32:28;;;;;;;93.07;33.25;;;;;;;-3.32;100.00;93717.78;2101100;28;20020;-82
2022/12/19 01:33:39;;;;;;;88.43;32.80;;;;;;;-3.25;100.00;93725.88;2093697;28;20082;-81
2022/12/19 01:34:41;;;;;;;95.75;32.90;;;;;;;-3.23;100.00;93730.81;2099965;28;20131;-78
2022/12/19 01:35:44;;;;;;;86.05;33.45;;;;;;;-3.27;100.00;93724.66;2107633;28;20035;-80
2022/12/19 01:36:48;;;;;;;93.30;34.50;;;;;;;-3.22;100.00;93732.34;2114819;28;20026;-81
2022/12/19 01:37:56;;;;;;;94.00;33.67;;;;;;;-3.24;100.00;93726.66;2104713;28;20059;-82
2022/12/19 01:39:03;;;;;;;92.10;32.60;;;;;;;-3.11;100.00;93731.69;2099829;28;20482;-81
2022/12/19 01:40:08;;;;;;;94.85;32.78;;;;;;;-3.22;100.00;93727.88;2100788;28;20035;-84
2022/12/19 01:41:18;;;;;;;93.15;31.75;;;;;;;-3.22;100.00;93724.50;2099253;28;20107;-82
2022/12/19 01:42:24;;;;;;;99.15;34.42;;;;;;;-3.17;100.00;93727.69;2092636;28;20485;-82
2022/12/19 01:43:29;;;;;;;90.30;31.25;;;;;;;-3.20;100.00;93723.09;2100006;28;20032;-81
2022/12/19 01:44:36;;;;;;;96.32;34.88;;;;;;;-3.22;100.00;93729.72;2099487;28;20381;-81
2022/12/19 01:45:48;;;;;;;97.72;33.75;;;;;;;-3.26;100.00;93731.41;2092259;28;20036;-81
2022/12/19 01:46:57;;;;;;;90.63;33.47;;;;;;;-3.25;100.00;93733.72;2099974;28;20086;-80
2022/12/19 01:48:19;;;;;;;94.03;32.38;;;;;;;-3.27;100.00;93730.66;2091605;28;20097;-79
2022/12/19 01:49:35;;;;;;;90.22;32.40;;;;;;;-3.19;100.00;93732.47;2096565;28;20027;-81
2022/12/19 01:50:59;;;;;;;91.72;31.88;;;;;;;-3.23;100.00;93736.03;2102112;28;20024;-80
2022/12/19 01:52:07;;;;;;;88.32;32.28;;;;;;;-3.18;100.00;93726.16;2101592;28;20024;-81
2022/12/19 01:53:11;;;;;;;94.32;31.52;;;;;;;-3.25;100.00;93728.47;2091973;28;20107;-83
2022/12/19 01:54:24;;;;;;;89.93;31.05;;;;;;;-2.93;100.00;93726.38;2091786;28;20108;-80
2022/12/19 01:55:34;;;;;;;87.55;31.45;;;;;;;-3.06;100.00;93733.34;2099956;28;20060;-81
2022/12/19 01:56:44;;;;;;;95.65;30.83;;;;;;;-3.01;100.00;93730.56;2099176;28;20031;-81
2022/12/19 01:57:48;;;;;;;94.43;31.65;;;;;;;-3.14;100.00;93724.47;2093834;28;20025;-82
2022/12/19 01:59:02;;;;;;;93.75;31.42;;;;;;;-2.99;100.00;93725.75;2100111;28;20102;-82
2022/12/19 02:00:08;;;;;;;90.10;32.05;;;;;;;-2.81;100.00;93731.69;2092412;28;20063;-82
2022/12/19 02:01:12;;;;;;;98.40;31.25;;;;;;;-3.03;100.00;93730.09;2100228;28;20478;-82
2022/12/19 02:02:39;;;;;;;90.22;32.58;;;;;;;-2.96;100.00;93730.38;2106837;28;20047;-81
2022/12/19 02:03:51;;;;;;;85.22;30.40;;;;;;;-3.13;100.00;93722.59;2110098;28;20024;-83
2022/12/19 02:05:04;;;;;;;84.93;30.27;;;;;;;-3.05;100.00;93729.66;2109937;27;20028;-82
2022/12/19 02:06:15;;;;;;;87.63;31.02;;;;;;;-2.96;100.00;93724.38;2106854;28;20418;-82
2022/12/19 02:07:24;;;;;;;86.35;29.83;;;;;;;-3.08;100.00;93722.44;2099400;28;20036;-82
2022/12/19 02:08:39;;;;;;;93.13;31.58;;;;;;;-3.02;100.00;93730.88;2092052;28;20033;-82
2022/12/19 02:09:53;;;;;;;87.75;29.73;;;;;;;-2.93;100.00;93718.53;2095426;28;20036;-82
2022/12/19 02:11:11;;;;;;;81.75;29.67;;;;;;;-2.92;100.00;93715.59;2099643;28;20033;-81
2022/12/19 02:12:22;;;;;;;83.35;29.63;;;;;;;-2.86;100.00;93718.78;2111848;27;20457;-83
2022/12/19 02:13:47;;;;;;;89.10;30.55;;;;;;;-2.82;100.00;93714.44;2114315;28;20015;-82
2022/12/19 02:15:03;;;;;;;85.60;29.75;;;;;;;-2.92;100.00;93720.06;2102615;28;20484;-83
2022/12/19 02:28:05;;;;;;;;;;;;;;;-2.93;100.00;93702.84;2579979;22;20472;-81
2022/12/19 02:31:35;;;;;;;81.25;29.85;;;;;;;-2.94;100.00;93706.50;2573882;23;20000;-82
2022/12/19 02:33:07;;;;;;;91.50;32.47;;;;;;;-3.02;100.00;93704.72;2554690;23;20001;-83
2022/12/19 02:34:47;;;;;;;92.95;31.17;;;;;;;-3.00;100.00;93705.16;2547146;23;20067;-82
2022/12/19 02:36:39;;;;;;;93.40;31.55;;;;;;;-3.10;100.00;93703.69;2548442;23;20036;-85
2022/12/19 02:38:12;;;;;;;90.47;30.25;;;;;;;-3.02;100.00;93707.34;2537682;23;20009;-84
2022/12/19 02:39:31;;;;;;;88.07;30.60;;;;;;;-3.00;100.00;93710.41;2495027;23;20007;-86
2022/12/19 02:41:08;;;;;;;86.50;30.55;;;;;;;-3.05;100.00;93719.19;2528347;23;20068;-85
2022/12/19 02:42:24;;;;;;;92.78;30.60;;;;;;;-2.90;100.00;93717.88;2518513;23;20133;-83
2022/12/19 02:43:54;;;;;;;90.10;30.77;;;;;;;-2.74;100.00;93716.25;2538147;23;20306;-83
2022/12/19 02:45:07;;;;;;;85.57;30.48;;;;;;;-2.86;100.00;93716.94;2550238;23;20481;-83
2022/12/19 02:46:29;;;;;;;94.50;32.40;;;;;;;-2.88;100.00;93718.34;2541793;23;20025;-82
2022/12/19 02:47:51;;;;;;;92.00;30.52;;;;;;;-2.92;100.00;93712.22;2545812;23;20093;-82
2022/12/19 02:48:53;;;;;;;91.18;31.70;;;;;;;-2.92;100.00;93714.81;2547221;23;20084;-83
2022/12/19 02:50:00;;;;;;;98.45;32.58;;;;;;;-2.92;100.00;93715.59;2535137;23;20433;-81
2022/12/19 02:51:18;;;;;;;96.68;32.42;;;;;;;-2.96;100.00;93719.16;2543018;23;20091;-83
2022/12/19 02:52:22;;;;;;;89.15;31.40;;;;;;;-3.02;100.00;93726.41;2538437;23;20010;-83
2022/12/19 02:53:34;;;;;;;103.55;33.55;;;;;;;-2.98;100.00;93713.47;2527130;23;20004;-84
2022/12/19 02:54:47;;;;;;;93.78;31.92;;;;;;;-2.87;100.00;93717.25;2526727;23;20016;-85
2022/12/19 02:56:24;;;;;;;89.70;32.15;;;;;;;-2.87;100.00;93717.25;2539243;23;20028;-83
2022/12/19 02:57:48;;;;;;;93.47;31.13;;;;;;;-2.45;100.00;93712.09;2540702;23;20002;-84
2022/12/19 02:59:17;;;;;;;94.88;31.00;;;;;;;-2.66;100.00;93707.59;2542238;23;20001;-85
2022/12/19 03:01:22;;;;;;;87.00;30.10;;;;;;;-2.59;100.00;93707.88;2543452;23;20444;-83
2022/12/19 03:02:44;;;;;;;88.25;29.92;;;;;;;-2.40;100.00;93710.03;2519420;23;20009;-84
2022/12/19 03:04:21;;;;;;;93.40;31.85;;;;;;;-2.56;100.00;93698.59;2540898;23;20013;-82
2022/12/19 03:05:44;;;;;;;91.38;29.77;;;;;;;-2.47;100.00;93709.78;2551675;23;20015;-84
2022/12/19 03:07:04;;;;;;;89.47;29.70;;;;;;;-2.62;100.00;93695.41;2557013;23;20005;-84
2022/12/19 03:09:02;;;;;;;92.57;30.80;;;;;;;-2.64;100.00;93702.78;2550487;23;20013;-82
2022/12/19 03:10:17;;;;;;;92.10;30.15;;;;;;;-2.66;100.00;93704.97;2548069;23;20443;-84
2022/12/19 03:11:44;;;;;;;87.50;30.27;;;;;;;-2.70;100.00;93706.69;2546531;23;20099;-82
2022/12/19 03:13:06;;;;;;;89.88;30.33;;;;;;;-2.73;100.00;93699.47;2541410;23;20006;-82
2022/12/19 03:14:37;;;;;;;81.85;28.63;;;;;;;-2.57;100.00;93705.69;2531006;23;20005;-83
2022/12/19 03:15:44;;;;;;;88.65;31.02;;;;;;;-2.59;100.00;93707.88;2536818;23;20012;-83
2022/12/19 03:16:48;;;;;;;83.85;30.85;;;;;;;-2.64;100.00;93710.66;2524085;23;20014;-85
2022/12/19 03:18:21;;;;;;;92.60;31.45;;;;;;;-2.58;100.00;93706.78;2532659;23;20069;-83
2022/12/19 03:19:40;;;;;;;89.13;31.45;;;;;;;-2.59;100.00;93713.09;2535138;23;20001;-81
2022/12/19 03:21:33;;;;;;;89.55;31.48;;;;;;;-2.67;100.00;93708.69;2531421;23;20010;-84
2022/12/19 03:22:39;;;;;;;78.65;28.13;;;;;;;-2.60;100.00;93714.16;2532705;23;20001;-84
2022/12/19 03:23:58;;;;;;;88.80;30.52;;;;;;;-2.61;100.00;93710.03;2526541;23;20018;-83
2022/12/19 03:25:08;;;;;;;90.32;30.10;;;;;;;-2.61;100.00;93712.63;2539513;23;20036;-82
2022/12/19 03:26:32;;;;;;;93.03;30.98;;;;;;;-2.65;100.00;93718.81;2528429;23;20156;-85
2022/12/19 03:27:54;;;;;;;89.22;29.98;;;;;;;-2.51;100.00;93716.72;2535562;23;20957;-82
2022/12/19 03:29:41;;;;;;;92.35;29.27;;;;;;;-2.57;100.00;93715.38;2544174;23;20455;-83
2022/12/19 03:30:58;;;;;;;96.60;29.67;;;;;;;-2.64;100.00;93712.50;2545098;23;20009;-83
2022/12/19 03:32:10;;;;;;;87.13;31.15;;;;;;;-2.70;100.00;93719.78;2537369;23;20425;-82
2022/12/19 03:33:38;;;;;;;93.00;31.23;;;;;;;-2.51;100.00;93718.56;2548110;23;20681;-83
2022/12/19 03:34:50;;;;;;;90.05;30.35;;;;;;;-2.35;100.00;93722.94;2539041;23;20020;-81
2022/12/19 03:36:06;;;;;;;90.80;32.35;;;;;;;-2.50;100.00;93710.44;2525867;23;20007;-83
2022/12/19 03:37:42;;;;;;;82.43;28.65;;;;;;;-2.57;100.00;93721.38;2542523;23;20354;-83
2022/12/19 03:38:59;;;;;;;91.38;30.85;;;;;;;-2.63;100.00;93720.06;2551813;23;20005;-81
2022/12/19 03:40:14;;;;;;;91.38;32.15;;;;;;;-2.70;100.00;93714.53;2536931;23;20005;-82
2022/12/19 03:43:07;;;;;;;89.55;32.25;;;;;;;-2.66;100.00;93709.44;2550148;23;20009;-84
2022/12/19 03:43:09;;;;;;;92.13;31.13;;;;;;;-2.66;100.00;93715.44;2557418;23;20898;-84
2022/12/19 03:46:13;;;;;;;87.90;28.55;;;;;;;-2.65;100.00;93714.34;2544847;23;20685;-84
2022/12/19 03:47:51;;;;;;;86.97;30.20;;;;;;;-2.51;100.00;93710.72;2538771;23;20081;-84
2022/12/19 03:51:16;;;;;;;87.85;29.98;;;;;;;-2.63;100.00;93714.81;2567583;23;20719;-80
2022/12/19 03:52:40;;;;;;;85.95;30.02;;;;;;;-2.70;100.00;93717.16;2545386;23;20313;-82
2022/12/19 03:54:22;;;;;;;85.82;29.45;;;;;;;-2.76;100.00;93718.44;2531348;23;20006;-84
2022/12/19 03:55:38;;;;;;;88.53;31.80;;;;;;;-2.67;100.00;93708.69;2536847;23;20041;-84
2022/12/19 03:57:15;;;;;;;92.30;30.83;;;;;;;-2.62;100.00;93718.97;2548612;23;20060;-85
2022/12/19 03:58:27;;;;;;;89.15;29.92;;;;;;;-2.55;100.00;93714.00;2558149;23;20336;-82
2022/12/19 03:59:50;;;;;;;94.88;31.08;;;;;;;-2.55;100.00;93716.63;2537598;23;20060;-84
2022/12/19 04:00:58;;;;;;;87.97;31.92;;;;;;;-2.58;100.00;93716.47;2550051;23;20459;-82
2022/12/19 04:02:09;;;;;;;89.55;31.17;;;;;;;-2.25;100.00;93705.31;2537265;23;20010;-85
2022/12/19 04:03:34;;;;;;;98.65;33.88;;;;;;;-2.46;100.00;93710.53;2534029;23;20006;-81
2022/12/19 04:04:43;;;;;;;96.68;34.35;;;;;;;-2.43;100.00;93704.66;2543672;23;20424;-84
2022/12/19 04:05:50;;;;;;;93.65;32.00;;;;;;;-2.56;100.00;93707.22;2534231;23;20374;-81
2022/12/19 04:07:03;;;;;;;95.70;32.28;;;;;;;-2.62;100.00;93707.72;2525923;23;20003;-83
2022/12/19 04:08:07;;;;;;;101.43;32.83;;;;;;;-2.52;100.00;93702.13;2524519;23;20047;-84
2022/12/19 04:09:21;;;;;;;98.07;34.38;;;;;;;-2.65;100.00;93703.88;2523580;23;20010;-82
2022/12/19 04:10:46;;;;;;;96.35;33.10;;;;;;;-2.63;100.00;93703.59;2525998;23;20006;-85
2022/12/19 04:12:07;;;;;;;95.00;32.83;;;;;;;-2.62;100.00;93697.25;2555755;23;20451;-84
2022/12/19 04:13:21;;;;;;;99.88;35.45;;;;;;;-2.67;100.00;93706.06;2545483;23;20013;-83
2022/12/19 04:14:36;;;;;;;98.88;33.50;;;;;;;-2.45;100.00;93706.84;2526938;23;20449;-83
2022/12/19 04:16:05;;;;;;;93.82;32.88;;;;;;;-2.57;100.00;93697.06;2526412;23;20013;-83
2022/12/19 04:17:46;;;;;;;90.05;31.33;;;;;;;-2.32;100.00;93698.75;2539332;23;20013;-83
2022/12/19 04:19:03;;;;;;;85.85;31.95;;;;;;;-2.58;100.00;93698.94;2550101;23;20051;-84
2022/12/19 04:20:11;;;;;;;93.28;31.65;;;;;;;-2.56;100.00;93699.38;2548942;23;20475;-83
2022/12/19 04:21:39;;;;;;;90.60;31.65;;;;;;;-2.50;100.00;93704.41;2549472;23;20421;-83
2022/12/19 04:23:01;;;;;;;100.55;34.13;;;;;;;-2.63;100.00;93711.44;2538153;23;20014;-82
2022/12/19 04:25:46;;;;;;;89.60;31.30;;;;;;;-2.72;100.00;93714.09;2554094;23;20032;-81
2022/12/19 04:26:52;;;;;;;101.43;33.20;;;;;;;-2.74;100.00;93710.25;2543897;23;20006;-83
2022/12/19 04:27:58;;;;;;;95.13;32.50;;;;;;;-2.72;100.00;93710.69;2533275;23;20087;-82
2022/12/19 04:29:05;;;;;;;95.25;32.30;;;;;;;-2.47;100.00;93704.53;2533080;23;20042;-83
2022/12/19 04:30:13;;;;;;;94.07;32.80;;;;;;;-2.59;100.00;93704.47;2526873;23;20459;-82
2022/12/19 04:31:20;;;;;;;86.40;32.53;;;;;;;-2.54;100.00;93702.44;2524350;23;20497;-80
2022/12/19 04:32:23;;;;;;;92.32;33.53;;;;;;;-2.60;100.00;93701.09;2536525;23;20010;-84
2022/12/19 04:33:27;;;;;;;87.97;31.27;;;;;;;-2.58;100.00;93701.53;2535534;23;20002;-83
2022/12/19 04:34:33;;;;;;;92.80;33.85;;;;;;;-2.48;100.00;93691.78;2523793;23;20017;-81
2022/12/19 04:35:35;;;;;;;103.75;34.60;;;;;;;-2.53;100.00;93692.75;2534862;23;20005;-85
2022/12/19 04:36:42;;;;;;;95.93;33.22;;;;;;;-2.63;100.00;93687.88;2522042;23;20034;-83
2022/12/19 04:37:49;;;;;;;94.20;33.25;;;;;;;-2.66;100.00;93686.66;2535830;23;20006;-84
2022/12/19 04:38:58;;;;;;;93.72;33.00;;;;;;;-2.60;100.00;93682.00;2533309;23;20068;-83
2022/12/19 04:39:59;;;;;;;93.35;32.20;;;;;;;-2.58;100.00;93685.09;2524792;23;20037;-85
2022/12/19 04:41:05;;;;;;;88.22;32.90;;;;;;;-2.60;100.00;93679.38;2522517;23;20015;-85
2022/12/19 04:42:09;;;;;;;93.68;34.65;;;;;;;-2.62;100.00;93686.81;2522899;23;20016;-83
2022/12/19 04:43:11;;;;;;;86.35;30.10;;;;;;;-2.47;100.00;93686.22;2522491;23;20006;-84
2022/12/19 04:44:17;;;;;;;92.07;32.63;;;;;;;-2.46;100.00;93689.59;2545397;23;20006;-83
2022/12/19 04:45:20;;;;;;;91.32;32.28;;;;;;;-2.50;100.00;93686.09;2558823;23;20383;-84
2022/12/19 04:46:22;;;;;;;93.72;33.17;;;;;;;-2.61;100.00;93689.09;2545569;23;20112;-83
2022/12/19 04:47:23;;;;;;;90.30;32.60;;;;;;;-2.65;100.00;93692.66;2533483;23;20017;-83
2022/12/19 04:48:27;;;;;;;91.18;32.05;;;;;;;-2.66;100.00;93688.53;2533470;23;20489;-84
2022/12/19 04:49:37;;;;;;;92.53;32.50;;;;;;;-2.70;100.00;93685.00;2547822;23;20064;-83
2022/12/19 04:50:38;;;;;;;89.18;33.28;;;;;;;-2.65;100.00;93679.56;2533324;23;20356;-82
2022/12/19 04:51:40;;;;;;;96.88;33.03;;;;;;;-2.66;100.00;93691.91;2533761;23;20013;-83
2022/12/19 04:52:45;;;;;;;88.05;32.42;;;;;;;-2.55;100.00;93687.84;2533273;23;20013;-84
2022/12/19 04:53:53;;;;;;;84.15;31.95;;;;;;;-2.53;100.00;93696.13;2524295;23;20013;-85
2022/12/19 04:55:04;;;;;;;87.82;31.80;;;;;;;-2.54;100.00;93693.81;2535553;23;20002;-82
2022/12/19 04:56:09;;;;;;;92.80;32.95;;;;;;;-2.50;100.00;93686.88;2545345;23;20043;-85
2022/12/19 04:57:11;;;;;;;87.00;32.08;;;;;;;-2.43;100.00;93687.13;2522750;23;20007;-84
2022/12/19 04:58:12;;;;;;;87.25;33.45;;;;;;;-2.47;100.00;93691.44;2545719;23;20013;-85
2022/12/19 04:59:17;;;;;;;87.18;34.15;;;;;;;-2.51;100.00;93698.41;2545340;23;20567;-82
2022/12/19 05:00:21;;;;;;;90.72;32.80;;;;;;;-2.59;100.00;93702.63;2546236;23;20048;-84
2022/12/19 05:01:23;;;;;;;92.18;32.75;;;;;;;-2.55;100.00;93697.50;2533901;23;20716;-83
2022/12/19 05:02:25;;;;;;;94.38;33.15;;;;;;;-2.53;100.00;93690.88;2533704;23;20065;-84
2022/12/19 05:03:26;;;;;;;78.32;31.55;;;;;;;-2.45;100.00;93694.53;2545782;23;20001;-82
2022/12/19 05:04:34;;;;;;;89.85;31.90;;;;;;;-2.49;100.00;93696.25;2533266;23;20084;-84
2022/12/19 05:05:38;;;;;;;89.55;31.77;;;;;;;-2.55;100.00;93703.53;2535190;23;20037;-84
2022/12/19 05:06:42;;;;;;;88.15;36.28;;;;;;;-2.57;100.00;93695.22;2546470;23;20093;-84
2022/12/19 05:07:44;;;;;;;84.20;33.40;;;;;;;-2.52;100.00;93691.66;2545757;23;20384;-85
2022/12/19 05:08:57;;;;;;;97.40;35.13;;;;;;;-2.53;100.00;93697.97;2521918;23;20018;-83
2022/12/19 05:10:02;;;;;;;95.22;33.85;;;;;;;-2.39;100.00;93695.84;2527100;23;20494;-84
2022/12/19 05:11:04;;;;;;;94.03;31.55;;;;;;;-2.41;100.00;93697.28;2536546;23;20487;-84
2022/12/19 05:12:06;;;;;;;90.40;32.15;;;;;;;-2.15;100.00;93702.28;2535633;23;20006;-84
2022/12/19 05:13:11;;;;;;;87.32;32.33;;;;;;;-2.24;100.00;93691.13;2523135;23;20474;-84
2022/12/19 05:14:16;;;;;;;93.57;32.97;;;;;;;-2.21;100.00;93695.72;2535291;23;20654;-83
2022/12/19 05:15:20;;;;;;;84.45;31.38;;;;;;;-2.31;100.00;93702.13;2546736;23;20420;-83
2022/12/19 05:16:25;;;;;;;84.53;31.15;;;;;;;-2.33;100.00;93696.44;2545807;23;20005;-84
2022/12/19 05:17:27;;;;;;;86.32;31.90;;;;;;;-2.40;100.00;93694.34;2522482;23;20002;-84
2022/12/19 05:18:32;;;;;;;87.22;32.30;;;;;;;-2.41;100.00;93695.44;2546075;23;19997;-83
2022/12/19 05:19:35;;;;;;;95.55;32.50;;;;;;;-2.39;100.00;93703.72;2534312;23;20369;-82
2022/12/19 05:20:37;;;;;;;89.43;33.53;;;;;;;-2.39;100.00;93692.47;2522143;23;20410;-82
2022/12/19 05:21:39;;;;;;;88.32;32.38;;;;;;;-2.33;100.00;93696.44;2521919;23;20002;-82
2022/12/19 05:22:42;;;;;;;90.20;32.88;;;;;;;-2.31;100.00;93700.28;2546771;23;20020;-83
2022/12/19 05:23:43;;;;;;;95.95;34.40;;;;;;;-2.32;100.00;93705.84;2545671;23;20396;-84
2022/12/19 05:24:51;;;;;;;91.68;33.40;;;;;;;-2.39;100.00;93700.34;2536220;23;20081;-84
2022/12/19 05:25:57;;;;;;;91.22;33.10;;;;;;;-2.42;100.00;93695.72;2533560;23;20006;-82
2022/12/19 05:26:59;;;;;;;95.35;34.67;;;;;;;-2.23;100.00;93701.28;2534802;23;20013;-82
2022/12/19 05:28:04;;;;;;;85.43;32.90;;;;;;;-2.27;100.00;93703.03;2521504;23;20077;-84
2022/12/19 05:29:09;;;;;;;94.10;33.92;;;;;;;-2.12;100.00;93697.19;2522089;23;20045;-83
2022/12/19 05:30:14;;;;;;;105.20;36.35;;;;;;;-2.21;100.00;93698.34;2522898;23;20480;-84
2022/12/19 05:31:19;;;;;;;85.82;32.63;;;;;;;-2.10;100.00;93697.66;2522390;23;20430;-83
2022/12/19 05:32:21;;;;;;;86.95;31.27;;;;;;;-2.17;100.00;93702.63;2521647;23;20010;-83
2022/12/19 05:33:23;;;;;;;84.47;32.42;;;;;;;-2.13;100.00;93694.91;2519988;23;20414;-83
2022/12/19 05:34:24;;;;;;;86.40;31.25;;;;;;;-2.23;100.00;93693.44;2533448;23;20368;-83
2022/12/19 05:35:45;;;;;;;86.82;31.33;;;;;;;-2.29;100.00;93692.09;2533182;23;20022;-84
2022/12/19 05:36:46;;;;;;;85.70;31.98;;;;;;;-2.33;100.00;93697.22;2553441;23;19998;-84
2022/12/19 05:37:48;;;;;;;91.97;33.25;;;;;;;-2.29;100.00;93700.69;2545153;23;20503;-82
2022/12/19 05:38:50;;;;;;;84.75;31.58;;;;;;;-2.31;100.00;93697.66;2521472;23;20017;-84
2022/12/19 05:39:55;;;;;;;86.00;33.25;;;;;;;-2.26;100.00;93699.31;2534811;23;20314;-83
2022/12/19 05:40:59;;;;;;;89.45;33.25;;;;;;;-2.30;100.00;93706.28;2545244;23;20011;-81
2022/12/19 05:42:03;;;;;;;84.72;32.72;;;;;;;-2.10;100.00;93707.34;2546044;23;20088;-84
2022/12/19 05:43:05;;;;;;;85.03;32.35;;;;;;;-2.16;100.00;93704.16;2545784;23;20054;-83
2022/12/19 05:44:06;;;;;;;87.43;33.35;;;;;;;-2.07;100.00;93706.69;2543982;23;20013;-81
2022/12/19 05:45:08;;;;;;;79.68;31.58;;;;;;;-2.05;100.00;93707.91;2533094;23;20114;-85
2022/12/19 05:46:11;;;;;;;90.88;33.33;;;;;;;-2.18;100.00;93705.56;2533578;23;20020;-83